Time;durP1;ratioP1;P1;durP2;ratioP2;P2;SDS_P1;SDS_P2;PMS_P1;PMS_P2;Temp;Humidity;BMP_temperature;BMP_pressure;BME280_temperature;BME280_humidity;BME280_pressure;Samples;Min_cycle;Max_cycle;Signal;HPM_P1;HPM_P2
2022/11/10 00:00:05;;;;;;;5.00;2.37;;;11.20;99.90;;;;;;4994808;28;20531;-91
2022/11/10 00:02:30;;;;;;;6.50;3.00;;;11.20;99.90;;;;;;4994737;28;20186;-93
2022/11/10 00:04:56;;;;;;;8.70;2.93;;;11.20;99.90;;;;;;4997872;28;20449;-93
2022/11/10 00:07:25;;;;;;;3.10;2.17;;;11.20;99.90;;;;;;4997007;28;20185;-93
2022/11/10 00:09:53;;;;;;;8.60;3.37;;;11.10;99.90;;;;;;4995569;28;20249;-94
2022/11/10 00:12:20;;;;;;;6.20;2.97;;;11.00;99.90;;;;;;4994810;28;20438;-93
2022/11/10 00:17:30;;;;;;;7.43;3.33;;;11.00;99.90;;;;;;4996400;28;20456;-93
2022/11/10 00:19:56;;;;;;;5.97;2.20;;;11.00;99.90;;;;;;4994472;28;20942;-94
2022/11/10 00:22:22;;;;;;;6.30;3.30;;;11.00;99.90;;;;;;4994242;28;20423;-92
2022/11/10 00:24:47;;;;;;;7.23;3.50;;;11.00;99.90;;;;;;4994773;28;20551;-93
2022/11/10 00:27:13;;;;;;;10.13;3.40;;;11.00;99.90;;;;;;4995696;28;20257;-93
2022/11/10 00:29:40;;;;;;;7.20;2.93;;;11.00;99.90;;;;;;4994226;28;20661;-94
2022/11/10 00:32:05;;;;;;;4.90;2.57;;;11.10;99.90;;;;;;4994235;28;20447;-91
2022/11/10 00:34:31;;;;;;;6.03;3.30;;;11.00;99.90;;;;;;4994041;28;20510;-93
2022/11/10 00:36:57;;;;;;;6.07;3.20;;;11.10;99.90;;;;;;4995193;28;20617;-94
2022/11/10 00:39:22;;;;;;;8.70;3.40;;;11.10;99.90;;;;;;4998002;28;20277;-94
2022/11/10 00:41:48;;;;;;;5.83;3.17;;;11.10;99.90;;;;;;4998802;28;20713;-94
2022/11/10 00:44:13;;;;;;;8.10;3.87;;;11.10;99.90;;;;;;4995947;28;20288;-95
2022/11/10 00:46:41;;;;;;;7.30;3.17;;;11.10;99.90;;;;;;4998059;28;20176;-94
2022/11/10 00:49:07;;;;;;;6.20;2.97;;;11.10;99.90;;;;;;4995073;28;20168;-95
2022/11/10 00:51:32;;;;;;;6.70;2.60;;;11.10;99.90;;;;;;4995426;28;20492;-92
2022/11/10 00:53:58;;;;;;;4.93;3.00;;;11.00;99.90;;;;;;4994138;28;20216;-92
2022/11/10 00:56:25;;;;;;;5.50;2.37;;;10.90;99.90;;;;;;4994609;28;20166;-93
2022/11/10 00:58:51;;;;;;;5.80;3.23;;;10.90;99.90;;;;;;4994422;28;20181;-94
2022/11/10 01:01:18;;;;;;;3.80;2.60;;;10.90;99.90;;;;;;4994382;28;20422;-94
2022/11/10 01:03:44;;;;;;;8.60;3.50;;;10.90;99.90;;;;;;4995729;28;20196;-94
2022/11/10 01:06:12;;;;;;;9.10;3.80;;;10.80;99.90;;;;;;4996491;28;20413;-94
2022/11/10 01:08:39;;;;;;;5.73;2.57;;;10.90;99.90;;;;;;4998912;28;20189;-94
2022/11/10 01:11:12;;;;;;;8.43;3.10;;;10.80;99.90;;;;;;4995520;28;20423;-94
2022/11/10 01:13:38;;;;;;;5.00;2.67;;;10.70;99.90;;;;;;4994378;28;20467;-92
2022/11/10 01:16:06;;;;;;;5.80;2.20;;;10.60;99.90;;;;;;4993087;28;20425;-92
2022/11/10 01:18:32;;;;;;;7.03;2.07;;;10.50;99.90;;;;;;4994065;28;20464;-94
2022/11/10 01:20:57;;;;;;;7.07;2.20;;;10.50;99.90;;;;;;4998824;28;20448;-92
2022/11/10 01:23:23;;;;;;;5.13;1.80;;;10.60;99.90;;;;;;4997989;28;20431;-93
2022/11/10 01:26:03;;;;;;;7.53;2.33;;;10.40;99.90;;;;;;4999444;28;20192;-95
2022/11/10 01:28:30;;;;;;;5.87;2.33;;;10.40;99.90;;;;;;4998925;28;20183;-93
2022/11/10 01:31:02;;;;;;;3.87;0.97;;;10.40;99.90;;;;;;4997971;28;20423;-94
2022/11/10 01:33:28;;;;;;;4.93;2.17;;;10.40;99.90;;;;;;4999422;28;20463;-94
2022/11/10 01:35:57;;;;;;;6.23;2.40;;;10.30;99.90;;;;;;5000330;28;20440;-93
2022/11/10 01:38:30;;;;;;;6.63;2.60;;;10.40;99.90;;;;;;4997831;28;20174;-94
2022/11/10 01:40:56;;;;;;;4.87;1.87;;;10.30;99.90;;;;;;4997771;28;20434;-93
2022/11/10 01:43:22;;;;;;;6.53;2.97;;;10.30;99.90;;;;;;4997969;28;20517;-93
2022/11/10 01:45:48;;;;;;;4.97;1.90;;;10.30;99.90;;;;;;4997547;28;20465;-94
2022/11/10 01:48:32;;;;;;;5.90;2.10;;;10.30;99.90;;;;;;4996522;28;20426;-94
2022/11/10 01:51:20;;;;;;;6.70;2.50;;;10.20;99.90;;;;;;4996293;28;20949;-90
2022/11/10 01:53:52;;;;;;;3.47;1.67;;;10.20;99.90;;;;;;4996976;28;20519;-91
2022/11/10 01:56:18;;;;;;;8.80;2.17;;;10.10;99.90;;;;;;4996571;28;20477;-90
2022/11/10 01:58:50;;;;;;;2.97;1.20;;;10.10;99.90;;;;;;4996374;28;20522;-93
2022/11/10 02:01:16;;;;;;;4.90;1.50;;;10.10;99.90;;;;;;4996962;28;20782;-89
2022/11/10 02:03:56;;;;;;;5.90;1.10;;;10.00;99.90;;;;;;4995633;28;20502;-89
2022/11/10 02:06:27;;;;;;;3.43;1.70;;;10.00;99.90;;;;;;4996027;28;20437;-90
2022/11/10 02:08:54;;;;;;;4.67;1.77;;;10.00;99.90;;;;;;4996346;28;20519;-91
2022/11/10 02:11:21;;;;;;;9.10;2.03;;;9.90;99.90;;;;;;4996469;28;20423;-92
2022/11/10 02:13:47;;;;;;;4.87;1.63;;;9.90;99.90;;;;;;4995741;28;20532;-90
2022/11/10 02:16:12;;;;;;;5.27;1.33;;;9.90;99.90;;;;;;4995618;28;20420;-89
2022/11/10 02:18:38;;;;;;;7.20;2.57;;;9.90;99.90;;;;;;4996894;28;20438;-90
2022/11/10 02:21:05;;;;;;;6.83;1.63;;;9.90;99.90;;;;;;4995714;28;20171;-94
2022/11/10 02:23:34;;;;;;;5.50;2.97;;;9.90;99.90;;;;;;4996130;28;20283;-92
2022/11/10 02:26:04;;;;;;;4.67;1.67;;;9.90;99.90;;;;;;4997525;28;20851;-92
2022/11/10 02:28:34;;;;;;;5.63;1.50;;;9.90;99.90;;;;;;4996965;28;20533;-92
2022/11/10 02:31:00;;;;;;;7.70;3.10;;;9.90;99.90;;;;;;4995486;28;20570;-91
2022/11/10 02:33:26;;;;;;;11.93;3.43;;;10.00;99.90;;;;;;4994851;28;20496;-89
2022/11/10 02:35:51;;;;;;;11.40;2.97;;;9.90;99.90;;;;;;4994056;28;20755;-90
2022/11/10 02:38:16;;;;;;;9.73;2.70;;;9.90;99.90;;;;;;4994439;28;20258;-90
2022/11/10 02:40:42;;;;;;;9.40;2.60;;;9.90;99.90;;;;;;4995222;28;20168;-89
2022/11/10 02:43:11;;;;;;;7.47;2.60;;;9.90;99.90;;;;;;4995237;28;20169;-89
2022/11/10 02:45:48;;;;;;;4.03;2.47;;;9.80;99.90;;;;;;4995959;28;20190;-91
2022/11/10 02:48:15;;;;;;;7.17;2.87;;;9.80;99.90;;;;;;4994957;28;20423;-91
2022/11/10 02:50:41;;;;;;;10.20;4.10;;;9.80;99.90;;;;;;4996255;28;20510;-88
2022/11/10 02:53:06;;;;;;;8.23;2.67;;;9.80;99.90;;;;;;4995068;28;20550;-91
2022/11/10 02:55:32;;;;;;;8.97;3.07;;;9.80;99.90;;;;;;4995389;28;20423;-91
2022/11/10 02:57:57;;;;;;;9.07;2.93;;;9.80;99.90;;;;;;4995089;28;20167;-89
2022/11/10 03:00:23;;;;;;;8.47;3.17;;;9.70;99.90;;;;;;4998040;28;20199;-93
2022/11/10 03:02:55;;;;;;;5.77;3.57;;;9.70;99.90;;;;;;5000579;28;20182;-94
2022/11/10 03:05:20;;;;;;;10.57;3.83;;;9.70;99.90;;;;;;5000317;28;20177;-95
2022/11/10 03:07:55;;;;;;;8.03;3.87;;;9.60;99.90;;;;;;4996606;28;20433;-94
2022/11/10 03:10:21;;;;;;;9.63;3.10;;;9.60;99.90;;;;;;4995463;28;20176;-88
2022/11/10 03:12:47;;;;;;;6.50;3.33;;;9.60;99.90;;;;;;4995095;28;20417;-89
2022/11/10 03:15:13;;;;;;;8.90;3.67;;;9.60;99.90;;;;;;4994518;28;20458;-89
2022/11/10 03:17:40;;;;;;;11.30;5.43;;;9.50;99.90;;;;;;4994693;28;20180;-91
2022/11/10 03:20:06;;;;;;;11.37;3.70;;;9.60;99.90;;;;;;4996353;28;20446;-95
2022/11/10 03:22:32;;;;;;;7.20;3.50;;;9.60;99.90;;;;;;4995854;28;20424;-93
2022/11/10 03:24:57;;;;;;;8.63;4.30;;;9.60;99.90;;;;;;4995539;28;20515;-93
2022/11/10 03:27:23;;;;;;;10.83;4.50;;;9.50;99.90;;;;;;4995371;28;20238;-91
2022/11/10 03:29:48;;;;;;;9.00;4.17;;;9.40;99.90;;;;;;4995080;28;20206;-91
2022/11/10 03:32:14;;;;;;;9.03;5.90;;;9.30;99.90;;;;;;4994901;28;20214;-88
2022/11/10 03:34:39;;;;;;;8.53;4.93;;;9.40;99.90;;;;;;4994943;28;20295;-90
2022/11/10 03:37:05;;;;;;;12.03;5.00;;;9.40;99.90;;;;;;4993748;28;20554;-90
2022/11/10 03:39:30;;;;;;;9.80;4.60;;;9.50;99.90;;;;;;5001510;28;20648;-93
2022/11/10 03:41:56;;;;;;;7.70;4.60;;;9.50;99.90;;;;;;5011037;28;20173;-93
2022/11/10 03:44:21;;;;;;;13.77;7.03;;;9.40;99.90;;;;;;5006785;28;20203;-93
2022/11/10 03:46:47;;;;;;;8.80;5.17;;;9.50;99.90;;;;;;5002287;28;20183;-92
2022/11/10 03:49:12;;;;;;;9.70;5.60;;;9.50;99.90;;;;;;4993975;28;20185;-91
2022/11/10 03:51:38;;;;;;;10.67;5.60;;;9.40;99.90;;;;;;5007502;22;20192;-92
2022/11/10 03:54:04;;;;;;;7.50;5.20;;;9.50;99.90;;;;;;5022240;28;20253;-93
2022/11/10 03:56:29;;;;;;;13.77;6.03;;;9.50;99.90;;;;;;5030416;28;20182;-91
2022/11/10 03:58:55;;;;;;;7.80;5.30;;;9.50;99.90;;;;;;5020382;28;20178;-92
2022/11/10 04:01:22;;;;;;;8.60;6.03;;;9.40;99.90;;;;;;5020117;28;20175;-94
2022/11/10 04:03:48;;;;;;;11.50;5.70;;;9.50;99.90;;;;;;5027822;28;20178;-93
2022/11/10 04:08:57;;;;;;;14.43;6.57;;;9.50;99.90;;;;;;5035159;28;20214;-89
2022/11/10 04:16:53;;;;;;;12.03;7.27;;;9.60;99.90;;;;;;5038404;28;20440;-91
2022/11/10 04:19:19;;;;;;;14.50;7.87;;;9.70;99.90;;;;;;5020127;28;20443;-96
2022/11/10 04:21:45;;;;;;;10.10;6.03;;;9.80;99.90;;;;;;5019200;28;20495;-90
2022/11/10 04:24:10;;;;;;;13.50;6.80;;;9.80;99.90;;;;;;5016505;28;20185;-92
2022/11/10 04:26:37;;;;;;;10.27;6.60;;;9.90;99.90;;;;;;5043773;28;20317;-91
2022/11/10 04:29:04;;;;;;;9.97;6.97;;;9.90;99.90;;;;;;5032558;28;20184;-88
2022/11/10 04:31:32;;;;;;;12.43;7.70;;;9.90;99.90;;;;;;5033435;28;20408;-90
2022/11/10 04:33:58;;;;;;;11.40;6.47;;;10.00;99.90;;;;;;5034195;28;20818;-94
2022/11/10 04:36:26;;;;;;;11.60;7.80;;;10.10;99.90;;;;;;5019701;28;20425;-91
2022/11/10 04:38:53;;;;;;;13.20;8.87;;;10.10;99.90;;;;;;5017259;28;20418;-88
2022/11/10 04:41:18;;;;;;;14.40;7.60;;;10.10;99.90;;;;;;5015318;28;20437;-87
2022/11/10 04:43:44;;;;;;;10.20;5.57;;;10.10;99.90;;;;;;5047872;28;20468;-87
2022/11/10 04:46:28;;;;;;;13.63;6.17;;;10.10;99.90;;;;;;5052710;28;20175;-86
2022/11/10 04:48:54;;;;;;;10.63;6.47;;;10.20;99.90;;;;;;5035375;28;20174;-88
2022/11/10 04:51:22;;;;;;;12.10;5.47;;;10.20;99.90;;;;;;5035230;28;20417;-87
2022/11/10 04:53:47;;;;;;;9.87;6.20;;;10.20;99.90;;;;;;5034874;28;20473;-88
2022/11/10 04:56:18;;;;;;;9.07;6.13;;;10.30;99.90;;;;;;5035020;28;20785;-87
2022/11/10 04:58:44;;;;;;;11.13;5.87;;;10.20;99.90;;;;;;5056523;28;20183;-87
2022/11/10 05:01:11;;;;;;;10.93;6.63;;;10.30;99.90;;;;;;5038830;28;20460;-87
2022/11/10 05:03:37;;;;;;;11.60;6.47;;;10.30;99.90;;;;;;5038490;28;20466;-88
2022/11/10 05:06:03;;;;;;;12.87;6.03;;;10.20;99.90;;;;;;5038587;28;20425;-89
2022/11/10 05:08:28;;;;;;;10.20;5.50;;;10.20;99.90;;;;;;5056743;28;20170;-88
2022/11/10 05:10:54;;;;;;;11.13;5.57;;;10.30;99.90;;;;;;5038927;28;20262;-87
2022/11/10 05:13:19;;;;;;;14.70;6.47;;;10.20;99.90;;;;;;5056614;28;20210;-89
2022/11/10 05:15:45;;;;;;;9.93;6.07;;;10.20;99.90;;;;;;5056572;28;20190;-88
2022/11/10 05:18:10;;;;;;;12.30;5.40;;;10.20;99.90;;;;;;5039516;28;20600;-89
2022/11/10 05:20:36;;;;;;;11.90;5.80;;;10.10;99.90;;;;;;5039675;28;20187;-89
2022/11/10 05:25:45;;;;;;;8.00;5.30;;;10.10;99.90;;;;;;5057813;28;20518;-91
2022/11/10 05:28:12;;;;;;;16.50;5.17;;;10.00;99.90;;;;;;5039478;28;20413;-90
2022/11/10 05:30:38;;;;;;;9.10;4.97;;;10.00;99.90;;;;;;5038870;28;20597;-89
2022/11/10 05:33:05;;;;;;;12.33;5.60;;;9.90;99.90;;;;;;5038749;28;20487;-92
2022/11/10 05:35:31;;;;;;;10.23;3.70;;;9.90;99.90;;;;;;5056516;28;20443;-89
2022/11/10 05:37:56;;;;;;;15.03;7.33;;;9.90;99.90;;;;;;5038604;28;20405;-89
2022/11/10 05:40:22;;;;;;;12.00;5.33;;;9.80;99.90;;;;;;5038455;28;20436;-88
2022/11/10 05:42:52;;;;;;;10.97;6.57;;;9.80;99.90;;;;;;5057378;28;20207;-87
2022/11/10 05:45:20;;;;;;;14.70;5.80;;;9.70;99.90;;;;;;5056149;28;20177;-90
2022/11/10 05:47:46;;;;;;;8.70;5.13;;;9.60;99.90;;;;;;5038409;28;20431;-88
2022/11/10 05:50:11;;;;;;;9.47;4.37;;;9.60;99.90;;;;;;5056163;28;20472;-89
2022/11/10 05:52:45;;;;;;;10.03;5.30;;;9.50;99.90;;;;;;5056244;28;20618;-88
2022/11/10 05:55:11;;;;;;;12.43;5.50;;;9.60;99.90;;;;;;5056136;28;20202;-90
2022/11/10 05:57:37;;;;;;;9.83;6.00;;;9.60;99.90;;;;;;5056193;28;20500;-88
2022/11/10 06:00:05;;;;;;;13.23;5.93;;;9.70;99.90;;;;;;5055712;28;20417;-89
2022/11/10 06:02:31;;;;;;;9.87;4.63;;;9.50;99.90;;;;;;5038089;28;20184;-89
2022/11/10 06:04:56;;;;;;;8.10;5.57;;;9.50;99.90;;;;;;5043196;28;20778;-89
2022/11/10 06:07:22;;;;;;;8.20;5.90;;;9.50;99.90;;;;;;5035965;28;20167;-89
2022/11/10 06:09:47;;;;;;;14.13;6.10;;;9.50;99.90;;;;;;5016737;28;20664;-88
2022/11/10 06:12:14;;;;;;;9.57;4.67;;;9.50;99.90;;;;;;5036054;28;20179;-88
2022/11/10 06:14:40;;;;;;;11.60;6.10;;;9.50;99.90;;;;;;5017807;28;20221;-88
2022/11/10 06:17:05;;;;;;;12.20;6.10;;;9.50;99.90;;;;;;5035821;28;20416;-89
2022/11/10 06:19:31;;;;;;;13.87;4.97;;;9.40;99.90;;;;;;5017761;28;20232;-88
2022/11/10 06:21:56;;;;;;;11.23;5.60;;;9.40;99.90;;;;;;5018403;28;20645;-89
2022/11/10 06:24:22;;;;;;;9.63;5.20;;;9.30;99.90;;;;;;5018258;28;20893;-90
2022/11/10 06:26:47;;;;;;;11.97;4.73;;;9.30;99.90;;;;;;5017364;28;20665;-89
2022/11/10 06:29:13;;;;;;;7.70;4.93;;;9.30;99.90;;;;;;5035890;28;20176;-93
2022/11/10 06:31:38;;;;;;;14.40;5.90;;;9.30;99.90;;;;;;5018568;28;20168;-91
2022/11/10 06:34:04;;;;;;;13.83;5.40;;;9.40;99.90;;;;;;5018168;28;20291;-89
2022/11/10 06:36:29;;;;;;;9.87;4.80;;;9.30;99.90;;;;;;5018043;28;20247;-88
2022/11/10 06:38:55;;;;;;;8.43;4.77;;;9.30;99.90;;;;;;5035842;28;20261;-88
2022/11/10 06:41:20;;;;;;;10.30;5.07;;;9.30;99.90;;;;;;5018027;28;20177;-89
2022/11/10 06:43:46;;;;;;;7.30;4.67;;;9.40;99.90;;;;;;5017954;28;20664;-88
2022/11/10 06:46:11;;;;;;;10.20;4.93;;;9.40;99.90;;;;;;5017681;28;20181;-87
2022/11/10 06:48:37;;;;;;;14.50;5.47;;;9.50;99.90;;;;;;5035468;28;20259;-88
2022/11/10 06:51:02;;;;;;;13.87;4.90;;;9.60;99.90;;;;;;5017773;28;20639;-89
2022/11/10 06:53:28;;;;;;;9.03;4.10;;;9.60;99.90;;;;;;5017444;28;20237;-88
2022/11/10 06:55:53;;;;;;;12.20;4.93;;;9.70;99.90;;;;;;5017800;28;20175;-90
2022/11/10 06:58:19;;;;;;;8.30;5.20;;;9.70;99.90;;;;;;5017759;28;20179;-89
2022/11/10 07:00:45;;;;;;;11.00;4.57;;;9.80;99.90;;;;;;5034966;28;20217;-90
2022/11/10 07:03:14;;;;;;;7.93;4.17;;;9.90;99.90;;;;;;5017352;28;20175;-88
2022/11/10 07:05:40;;;;;;;10.30;5.43;;;9.90;99.90;;;;;;5017872;28;20953;-91
2022/11/10 07:08:15;;;;;;;8.90;4.73;;;9.90;99.90;;;;;;5035573;28;20468;-90
2022/11/10 07:10:49;;;;;;;6.87;5.33;;;9.90;99.90;;;;;;5035302;28;20405;-90
2022/11/10 07:13:15;;;;;;;9.60;4.60;;;9.80;99.90;;;;;;5017781;28;20460;-90
2022/11/10 07:15:40;;;;;;;9.53;5.77;;;9.80;99.90;;;;;;5034847;28;20421;-90
2022/11/10 07:18:06;;;;;;;16.13;4.90;;;9.80;99.90;;;;;;5017444;28;20189;-91
2022/11/10 07:20:32;;;;;;;10.53;6.13;;;9.80;99.90;;;;;;5034788;28;20255;-90
2022/11/10 07:23:02;;;;;;;12.57;6.80;;;9.90;99.90;;;;;;5035559;28;20933;-90
2022/11/10 07:25:29;;;;;;;14.00;5.73;;;9.90;99.90;;;;;;5035174;28;20178;-91
2022/11/10 07:27:56;;;;;;;7.10;5.27;;;9.90;99.90;;;;;;5017630;28;20530;-88
2022/11/10 07:30:21;;;;;;;12.00;6.33;;;9.90;99.90;;;;;;5016671;28;20778;-89
2022/11/10 07:32:55;;;;;;;10.57;5.43;;;9.90;99.90;;;;;;5034698;28;20415;-89
2022/11/10 07:35:21;;;;;;;14.40;5.17;;;10.00;99.90;;;;;;5017251;28;20231;-89
2022/11/10 07:37:46;;;;;;;10.47;5.20;;;10.00;99.90;;;;;;5017063;28;20862;-91
2022/11/10 07:40:12;;;;;;;16.40;5.87;;;10.00;99.90;;;;;;5018033;28;20203;-89
2022/11/10 07:42:40;;;;;;;9.60;5.57;;;10.10;99.90;;;;;;5017327;28;20180;-88
2022/11/10 07:45:06;;;;;;;11.17;4.73;;;10.20;99.90;;;;;;5017138;28;20177;-89
2022/11/10 07:47:32;;;;;;;8.67;4.70;;;10.30;99.90;;;;;;5016472;28;20427;-91
2022/11/10 07:49:57;;;;;;;10.87;5.80;;;10.40;99.90;;;;;;5017037;28;20441;-90
2022/11/10 07:52:23;;;;;;;10.87;6.17;;;10.50;99.90;;;;;;5013064;28;20628;-89
2022/11/10 07:54:48;;;;;;;9.90;5.40;;;10.40;99.90;;;;;;5031242;28;20217;-90
2022/11/10 07:57:14;;;;;;;11.43;5.20;;;10.50;99.90;;;;;;5035039;28;20528;-91
2022/11/10 07:59:39;;;;;;;10.77;6.00;;;10.50;99.90;;;;;;5034275;28;20172;-87
2022/11/10 08:02:07;;;;;;;9.40;5.70;;;10.50;99.90;;;;;;5035500;28;20633;-90
2022/11/10 08:04:33;;;;;;;18.73;6.70;;;10.50;99.90;;;;;;5035644;28;20178;-88
2022/11/10 08:06:58;;;;;;;7.57;4.70;;;10.50;99.90;;;;;;5016238;28;20895;-89
2022/11/10 08:09:24;;;;;;;10.20;5.33;;;10.50;99.90;;;;;;5034290;28;20262;-89
2022/11/10 08:11:49;;;;;;;12.50;7.67;;;10.50;99.90;;;;;;5017002;28;20580;-90
2022/11/10 08:14:15;;;;;;;10.27;5.90;;;10.50;99.90;;;;;;5016185;28;20432;-88
2022/11/10 08:16:40;;;;;;;10.33;5.40;;;10.50;99.90;;;;;;5035064;28;20211;-91
2022/11/10 08:19:07;;;;;;;12.80;7.07;;;10.60;99.90;;;;;;5034505;28;20266;-88
2022/11/10 08:21:32;;;;;;;10.97;6.60;;;10.60;99.90;;;;;;5016520;28;20650;-90
2022/11/10 08:23:58;;;;;;;11.53;7.73;;;10.60;99.90;;;;;;5034346;28;20413;-92
2022/11/10 08:26:23;;;;;;;13.00;5.90;;;10.70;99.90;;;;;;5016552;28;20623;-90
2022/11/10 08:28:49;;;;;;;11.97;5.93;;;10.80;99.90;;;;;;5016507;28;20267;-91
2022/11/10 08:31:14;;;;;;;9.17;4.70;;;10.80;99.90;;;;;;5016389;28;20627;-90
2022/11/10 08:33:40;;;;;;;18.60;6.47;;;10.80;99.90;;;;;;5016120;28;20212;-90
2022/11/10 08:36:06;;;;;;;15.10;7.03;;;10.80;99.90;;;;;;5034123;28;20177;-90
2022/11/10 08:38:31;;;;;;;16.27;6.37;;;10.80;99.90;;;;;;5033737;28;20162;-90
2022/11/10 08:40:56;;;;;;;12.43;6.10;;;11.00;99.90;;;;;;5016301;28;20177;-91
2022/11/10 08:43:22;;;;;;;10.50;5.87;;;10.90;99.90;;;;;;5033807;28;20532;-89
2022/11/10 08:45:48;;;;;;;12.70;8.10;;;11.00;99.90;;;;;;5015940;28;20171;-91
2022/11/10 08:48:18;;;;;;;14.70;6.73;;;11.00;99.90;;;;;;5034634;28;20195;-91
2022/11/10 08:50:44;;;;;;;10.67;5.87;;;11.10;99.90;;;;;;5015790;28;20256;-89
2022/11/10 08:53:12;;;;;;;14.83;7.37;;;11.20;99.90;;;;;;5033399;28;20465;-90
2022/11/10 08:55:38;;;;;;;14.67;7.60;;;11.20;99.90;;;;;;5016033;28;20426;-91
2022/11/10 08:58:05;;;;;;;18.10;7.23;;;11.20;99.90;;;;;;5033599;28;20901;-91
2022/11/10 09:00:31;;;;;;;15.30;6.00;;;11.30;99.90;;;;;;5015742;28;20429;-90
2022/11/10 09:03:04;;;;;;;12.70;7.07;;;11.30;99.90;;;;;;5016006;28;20417;-89
2022/11/10 09:05:29;;;;;;;10.37;5.57;;;11.30;99.90;;;;;;5015877;28;20413;-89
2022/11/10 09:07:55;;;;;;;11.03;6.23;;;11.30;99.90;;;;;;5015820;28;20428;-91
2022/11/10 09:10:21;;;;;;;16.50;8.07;;;11.40;99.90;;;;;;5016156;28;20182;-89
2022/11/10 09:12:46;;;;;;;14.80;6.80;;;11.40;99.90;;;;;;5015933;28;20185;-90
2022/11/10 09:15:12;;;;;;;12.70;6.63;;;11.40;99.90;;;;;;5033202;28;20299;-89
2022/11/10 09:17:39;;;;;;;12.23;6.33;;;11.40;99.90;;;;;;5024528;28;20204;-89
2022/11/10 09:20:06;;;;;;;14.40;7.63;;;11.50;99.90;;;;;;5053359;28;20418;-89
2022/11/10 09:22:34;;;;;;;14.30;6.37;;;11.50;99.90;;;;;;5054727;28;20408;-88
2022/11/10 09:24:59;;;;;;;13.20;6.63;;;11.50;99.90;;;;;;5034079;28;20429;-89
2022/11/10 09:27:28;;;;;;;12.90;6.80;;;11.60;99.90;;;;;;5029365;28;20436;-93
2022/11/10 09:29:54;;;;;;;14.40;7.20;;;11.70;99.90;;;;;;5033297;28;20179;-89
2022/11/10 09:32:19;;;;;;;17.53;6.80;;;11.60;99.90;;;;;;5016414;28;20418;-90
2022/11/10 09:34:45;;;;;;;17.23;8.13;;;11.70;99.90;;;;;;5016285;28;20306;-89
2022/11/10 09:37:10;;;;;;;13.77;6.17;;;11.70;99.90;;;;;;5015910;28;20184;-88
2022/11/10 09:39:36;;;;;;;10.80;6.40;;;12.00;99.90;;;;;;5016977;28;20236;-89
2022/11/10 09:42:05;;;;;;;12.57;6.97;;;12.00;99.90;;;;;;5015609;28;20530;-90
2022/11/10 09:44:40;;;;;;;10.77;5.20;;;12.30;99.90;;;;;;5017996;28;20549;-90
2022/11/10 09:47:15;;;;;;;12.43;5.20;;;12.50;99.90;;;;;;5019146;28;20417;-88
2022/11/10 09:49:48;;;;;;;14.30;8.23;;;12.70;99.90;;;;;;5018493;28;20417;-88
2022/11/10 09:52:15;;;;;;;15.30;5.50;;;12.60;99.90;;;;;;4998950;28;20477;-88
2022/11/10 09:54:55;;;;;;;14.40;4.70;;;12.80;99.90;;;;;;4998914;28;20510;-87
2022/11/10 09:57:24;;;;;;;11.03;5.60;;;12.90;99.90;;;;;;4991183;28;20419;-90
2022/11/10 09:59:50;;;;;;;12.20;5.60;;;13.70;99.90;;;;;;4998856;28;20427;-89
2022/11/10 10:02:29;;;;;;;10.67;4.63;;;13.70;1.00;;;;;;4999232;28;20518;-89
2022/11/10 10:05:25;;;;;;;6.63;4.27;;;13.10;99.90;;;;;;5016825;28;20172;-90
2022/11/10 10:07:55;;;;;;;12.90;5.87;;;13.00;99.90;;;;;;4998613;28;20419;-87
2022/11/10 10:10:26;;;;;;;9.73;5.50;;;13.00;99.90;;;;;;5016327;28;20404;-89
2022/11/10 10:13:17;;;;;;;10.50;5.00;;;12.80;99.90;;;;;;5016577;28;20446;-91
2022/11/10 10:15:58;;;;;;;10.63;5.90;;;12.90;99.90;;;;;;5014634;28;20440;-88
2022/11/10 10:18:44;;;;;;;12.03;4.53;;;13.10;99.90;;;;;;4998671;28;20425;-89
2022/11/10 10:21:22;;;;;;;8.33;4.80;;;13.20;99.90;;;;;;5016353;28;20441;-89
2022/11/10 10:23:54;;;;;;;15.53;6.27;;;13.00;99.90;;;;;;5015023;28;20423;-89
2022/11/10 10:26:27;;;;;;;12.63;4.67;;;12.90;99.90;;;;;;4998630;28;20434;-88
2022/11/10 10:28:54;;;;;;;7.97;3.93;;;12.70;99.90;;;;;;4998349;28;20427;-88
2022/11/10 10:31:34;;;;;;;11.23;4.60;;;12.60;99.90;;;;;;5014837;28;20426;-85
2022/11/10 10:34:00;;;;;;;10.87;4.00;;;12.60;99.90;;;;;;5015739;28;20560;-88
2022/11/10 10:36:29;;;;;;;11.53;5.20;;;12.70;99.90;;;;;;5015896;28;20743;-93
2022/11/10 10:39:03;;;;;;;13.60;4.50;;;12.70;99.90;;;;;;5035029;28;20432;-92
2022/11/10 10:41:31;;;;;;;9.97;4.43;;;12.90;99.90;;;;;;5083203;22;20493;-90
2022/11/10 10:44:00;;;;;;;8.57;3.93;;;12.80;99.90;;;;;;5088947;28;20422;-92
2022/11/10 10:46:30;;;;;;;6.50;3.60;;;13.10;99.90;;;;;;5087758;28;20430;-90
2022/11/10 10:49:11;;;;;;;12.83;4.20;;;13.20;99.90;;;;;;5087810;28;20499;-94
2022/11/10 10:51:36;;;;;;;10.57;3.80;;;13.20;99.90;;;;;;5093659;28;20433;-91
2022/11/10 10:54:38;;;;;;;8.80;4.03;;;13.60;99.90;;;;;;5129065;28;20515;-95
2022/11/10 10:57:21;;;;;;;13.87;4.00;;;14.00;99.90;;;;;;5107083;28;20210;-95
2022/11/10 10:59:47;;;;;;;7.70;2.80;;;14.30;1.00;;;;;;5119538;22;20518;-90
2022/11/10 11:02:31;;;;;;;5.93;2.50;;;14.30;1.00;;;;;;5071002;28;21026;-94
2022/11/10 11:05:12;;;;;;;7.87;3.50;;;14.30;1.00;;;;;;5063513;28;20488;-88
2022/11/10 11:07:38;;;;;;;10.73;3.13;;;14.20;1.00;;;;;;5074394;28;20410;-87
2022/11/10 11:10:28;;;;;;;8.30;4.10;;;14.40;1.00;;;;;;5074030;28;20820;-87
2022/11/10 11:12:54;;;;;;;15.47;4.00;;;14.20;1.00;;;;;;5056476;28;20824;-86
2022/11/10 11:15:29;;;;;;;5.60;3.43;;;14.00;1.00;;;;;;5074131;28;20469;-87
2022/11/10 11:18:01;;;;;;;6.57;2.90;;;13.90;1.00;;;;;;5074193;28;20523;-87
2022/11/10 11:20:34;;;;;;;8.40;2.40;;;14.20;1.00;;;;;;5056263;28;20921;-86
2022/11/10 11:23:24;;;;;;;7.30;2.50;;;14.40;1.00;;;;;;5074140;28;20469;-86
2022/11/10 11:25:53;;;;;;;9.63;2.97;;;14.10;1.00;;;;;;5074154;28;20819;-89
2022/11/10 11:28:35;;;;;;;11.53;3.50;;;13.90;26.60;;;;;;5074081;28;20495;-87
2022/11/10 11:31:19;;;;;;;5.50;3.40;;;13.80;33.50;;;;;;5055841;28;20439;-88
2022/11/10 11:34:05;;;;;;;8.10;3.97;;;13.60;99.90;;;;;;5074093;28;20463;-89
2022/11/10 11:36:39;;;;;;;7.30;2.83;;;13.60;99.90;;;;;;5073807;28;20400;-86
2022/11/10 11:39:30;;;;;;;9.30;3.57;;;13.60;99.90;;;;;;5054684;28;20924;-87
2022/11/10 11:42:52;;;;;;;7.80;3.23;;;13.60;99.90;;;;;;5056027;28;20428;-88
2022/11/10 11:45:20;;;;;;;5.47;4.00;;;13.60;99.90;;;;;;5032465;28;20942;-86
2022/11/10 11:48:28;;;;;;;8.50;4.10;;;13.60;87.00;;;;;;5055808;28;20514;-87
2022/11/10 11:51:04;;;;;;;11.33;3.70;;;13.60;99.90;;;;;;5073763;28;20416;-87
2022/11/10 11:53:42;;;;;;;5.30;3.03;;;13.50;99.90;;;;;;5073598;28;20457;-90
2022/11/10 11:56:21;;;;;;;7.30;2.63;;;13.60;99.90;;;;;;5073644;28;20401;-87
2022/11/10 11:59:14;;;;;;;8.23;2.13;;;13.50;99.90;;;;;;5054992;28;20464;-86
2022/11/10 12:02:03;;;;;;;10.33;2.70;;;13.60;99.90;;;;;;5073429;28;20413;-87
2022/11/10 12:05:02;;;;;;;8.73;2.40;;;13.60;99.90;;;;;;5073430;28;20958;-87
2022/11/10 12:07:54;;;;;;;9.47;2.80;;;13.70;99.90;;;;;;5072595;28;20413;-87
2022/11/10 12:10:58;;;;;;;8.40;2.90;;;13.80;99.90;;;;;;5055578;28;20421;-88
2022/11/10 12:13:59;;;;;;;6.87;2.53;;;13.70;99.90;;;;;;5055398;28;20467;-87
2022/11/10 12:16:29;;;;;;;5.87;2.67;;;13.70;55.20;;;;;;5055379;28;20471;-87
2022/11/10 12:19:17;;;;;;;8.83;3.10;;;13.70;99.90;;;;;;5073159;28;20422;-86
2022/11/10 12:22:15;;;;;;;5.00;2.33;;;13.60;97.50;;;;;;5055262;28;20425;-87
2022/11/10 12:24:59;;;;;;;6.77;2.37;;;13.70;99.90;;;;;;5055513;28;20515;-90
2022/11/10 12:27:34;;;;;;;7.47;2.50;;;13.70;99.00;;;;;;5073254;28;20418;-87
2022/11/10 12:30:11;;;;;;;6.23;1.50;;;13.90;37.70;;;;;;5054784;28;20915;-87
2022/11/10 12:32:45;;;;;;;6.83;2.80;;;13.90;13.60;;;;;;5055388;28;20428;-86
2022/11/10 12:35:18;;;;;;;7.77;2.90;;;13.90;21.40;;;;;;5073002;28;20483;-86
2022/11/10 12:37:51;;;;;;;6.00;2.23;;;14.00;21.00;;;;;;5055338;28;20752;-87
2022/11/10 12:40:21;;;;;;;7.10;2.63;;;14.10;1.00;;;;;;5072985;28;20498;-87
2022/11/10 12:43:00;;;;;;;5.87;2.70;;;14.10;1.00;;;;;;5073018;28;20551;-89
2022/11/10 12:45:32;;;;;;;6.67;2.33;;;14.20;1.00;;;;;;5071615;28;20422;-86
2022/11/10 12:47:58;;;;;;;7.20;2.57;;;14.20;1.00;;;;;;5073194;28;20408;-86
2022/11/10 12:50:48;;;;;;;6.20;2.13;;;14.20;1.00;;;;;;5073140;28;20415;-89
2022/11/10 12:53:23;;;;;;;3.87;2.07;;;14.10;1.00;;;;;;5072881;28;20468;-86
2022/11/10 12:55:57;;;;;;;8.20;1.87;;;13.90;92.40;;;;;;5054826;28;20838;-86
2022/11/10 12:58:23;;;;;;;7.67;2.50;;;13.80;99.90;;;;;;5072622;28;20487;-87
2022/11/10 13:01:01;;;;;;;4.87;1.90;;;13.70;99.90;;;;;;5072621;28;20912;-86
2022/11/10 13:03:32;;;;;;;6.67;2.37;;;13.60;99.90;;;;;;5072798;28;20420;-86
2022/11/10 13:06:01;;;;;;;5.63;1.70;;;13.60;99.90;;;;;;5072744;28;20418;-87
2022/11/10 13:08:42;;;;;;;4.87;1.53;;;13.60;99.90;;;;;;5054679;28;20412;-86
2022/11/10 13:11:10;;;;;;;7.53;2.37;;;13.50;99.90;;;;;;5072795;28;20442;-85